< < Back
Terminal Aerodrome Forecast


Current Version              Previous Versions:   1  2  3  4  5  6  7  8  9  

Terminal Aerodrome Forecast

404
FTUS44 KBMX 301120
TAFMGM
TAF
KMGM 301120Z 3012/3112 27005KT P6SM SCT040
     FM301900 24006KT P6SM VCTS BKN050CB
     FM310100 00000KT P6SM FEW040=

Latest METAR

459
SAUS80 KWBC 301800 RRA
MTRMGM
METAR KMGM 301753Z VRB04KT 10SM FEW048 34/22 A3002 RMK AO2 SLP161
T03440222 10344 20250 58014


USA.gov is the U.S. government's official web portal to all federal, state and local government web resources and services.